sensor_id;sensor_type;location;lat;lon;timestamp;P1;durP1;ratioP1;P2;durP2;ratioP2
44476;SDS011;30180;44.788;10.366;2023-04-03T00:01:30;5.05;;;1.95;;
44476;SDS011;30180;44.788;10.366;2023-04-03T00:03:58;6.00;;;2.30;;
44476;SDS011;30180;44.788;10.366;2023-04-03T00:06:27;4.55;;;1.83;;
44476;SDS011;30180;44.788;10.366;2023-04-03T00:08:55;5.00;;;1.80;;
44476;SDS011;30180;44.788;10.366;2023-04-03T00:11:24;4.03;;;1.85;;
44476;SDS011;30180;44.788;10.366;2023-04-03T00:13:52;4.97;;;1.92;;
44476;SDS011;30180;44.788;10.366;2023-04-03T00:16:20;4.85;;;1.75;;
44476;SDS011;30180;44.788;10.366;2023-04-03T00:18:50;6.72;;;2.00;;
44476;SDS011;30180;44.788;10.366;2023-04-03T00:21:18;5.03;;;1.92;;
44476;SDS011;30180;44.788;10.366;2023-04-03T00:23:47;7.38;;;2.30;;
44476;SDS011;30180;44.788;10.366;2023-04-03T00:26:15;4.47;;;1.85;;
44476;SDS011;30180;44.788;10.366;2023-04-03T00:28:43;4.07;;;1.88;;
44476;SDS011;30180;44.788;10.366;2023-04-03T00:31:13;4.13;;;1.60;;
44476;SDS011;30180;44.788;10.366;2023-04-03T00:33:42;5.90;;;2.03;;
44476;SDS011;30180;44.788;10.366;2023-04-03T00:36:13;5.45;;;1.85;;
44476;SDS011;30180;44.788;10.366;2023-04-03T00:38:41;6.32;;;2.17;;
44476;SDS011;30180;44.788;10.366;2023-04-03T00:41:09;5.18;;;2.00;;
44476;SDS011;30180;44.788;10.366;2023-04-03T00:43:38;5.13;;;2.20;;
44476;SDS011;30180;44.788;10.366;2023-04-03T00:46:06;5.57;;;1.80;;
44476;SDS011;30180;44.788;10.366;2023-04-03T00:48:36;3.00;;;1.30;;
44476;SDS011;30180;44.788;10.366;2023-04-03T00:51:07;4.40;;;1.48;;
44476;SDS011;30180;44.788;10.366;2023-04-03T00:53:43;4.78;;;1.92;;
44476;SDS011;30180;44.788;10.366;2023-04-03T00:56:15;4.63;;;1.90;;
44476;SDS011;30180;44.788;10.366;2023-04-03T00:58:48;4.40;;;1.90;;
44476;SDS011;30180;44.788;10.366;2023-04-03T01:01:21;5.38;;;1.92;;
44476;SDS011;30180;44.788;10.366;2023-04-03T01:03:52;5.57;;;1.80;;
44476;SDS011;30180;44.788;10.366;2023-04-03T01:06:21;3.38;;;1.88;;
44476;SDS011;30180;44.788;10.366;2023-04-03T01:08:55;3.53;;;1.70;;
44476;SDS011;30180;44.788;10.366;2023-04-03T01:11:24;5.07;;;1.63;;
44476;SDS011;30180;44.788;10.366;2023-04-03T01:13:52;3.90;;;1.95;;
44476;SDS011;30180;44.788;10.366;2023-04-03T01:16:21;5.40;;;2.03;;
44476;SDS011;30180;44.788;10.366;2023-04-03T01:18:50;3.33;;;1.50;;
44476;SDS011;30180;44.788;10.366;2023-04-03T01:21:41;4.43;;;1.60;;
44476;SDS011;30180;44.788;10.366;2023-04-03T01:24:35;4.28;;;2.08;;
44476;SDS011;30180;44.788;10.366;2023-04-03T01:27:06;6.00;;;1.85;;
44476;SDS011;30180;44.788;10.366;2023-04-03T01:29:36;3.80;;;1.40;;
44476;SDS011;30180;44.788;10.366;2023-04-03T01:32:07;6.28;;;2.03;;
44476;SDS011;30180;44.788;10.366;2023-04-03T01:34:35;2.83;;;1.10;;
44476;SDS011;30180;44.788;10.366;2023-04-03T01:37:04;3.63;;;1.73;;
44476;SDS011;30180;44.788;10.366;2023-04-03T01:39:32;3.25;;;1.40;;
44476;SDS011;30180;44.788;10.366;2023-04-03T01:42:00;2.78;;;1.33;;
44476;SDS011;30180;44.788;10.366;2023-04-03T01:44:30;3.67;;;1.50;;
44476;SDS011;30180;44.788;10.366;2023-04-03T01:46:58;5.43;;;1.60;;
44476;SDS011;30180;44.788;10.366;2023-04-03T01:49:28;4.30;;;1.80;;
44476;SDS011;30180;44.788;10.366;2023-04-03T01:51:56;3.78;;;1.73;;
44476;SDS011;30180;44.788;10.366;2023-04-03T01:54:25;3.90;;;1.50;;
44476;SDS011;30180;44.788;10.366;2023-04-03T01:56:53;4.32;;;1.70;;
44476;SDS011;30180;44.788;10.366;2023-04-03T01:59:21;4.40;;;1.67;;
44476;SDS011;30180;44.788;10.366;2023-04-03T02:01:50;4.20;;;1.80;;
44476;SDS011;30180;44.788;10.366;2023-04-03T02:04:18;4.22;;;1.70;;
44476;SDS011;30180;44.788;10.366;2023-04-03T02:06:48;5.30;;;2.00;;
44476;SDS011;30180;44.788;10.366;2023-04-03T02:09:16;3.85;;;1.70;;
44476;SDS011;30180;44.788;10.366;2023-04-03T02:11:45;4.45;;;1.70;;
44476;SDS011;30180;44.788;10.366;2023-04-03T02:14:13;3.20;;;1.58;;
44476;SDS011;30180;44.788;10.366;2023-04-03T02:16:42;5.93;;;1.92;;
44476;SDS011;30180;44.788;10.366;2023-04-03T02:19:10;3.33;;;1.60;;
44476;SDS011;30180;44.788;10.366;2023-04-03T02:21:38;4.45;;;1.35;;
44476;SDS011;30180;44.788;10.366;2023-04-03T02:24:08;2.92;;;1.50;;
44476;SDS011;30180;44.788;10.366;2023-04-03T02:26:36;4.15;;;1.70;;
44476;SDS011;30180;44.788;10.366;2023-04-03T02:29:05;4.55;;;1.67;;
44476;SDS011;30180;44.788;10.366;2023-04-03T02:31:33;4.97;;;1.65;;
44476;SDS011;30180;44.788;10.366;2023-04-03T02:34:02;2.85;;;1.73;;
44476;SDS011;30180;44.788;10.366;2023-04-03T02:36:30;3.10;;;1.42;;
44476;SDS011;30180;44.788;10.366;2023-04-03T02:38:58;2.92;;;1.45;;
44476;SDS011;30180;44.788;10.366;2023-04-03T02:41:28;4.18;;;1.83;;
44476;SDS011;30180;44.788;10.366;2023-04-03T02:44:01;5.43;;;1.90;;
44476;SDS011;30180;44.788;10.366;2023-04-03T02:46:29;3.22;;;1.42;;
44476;SDS011;30180;44.788;10.366;2023-04-03T02:48:58;3.20;;;1.60;;
44476;SDS011;30180;44.788;10.366;2023-04-03T02:51:27;4.95;;;1.73;;
44476;SDS011;30180;44.788;10.366;2023-04-03T02:53:55;3.47;;;1.52;;
44476;SDS011;30180;44.788;10.366;2023-04-03T02:56:23;4.32;;;1.35;;
44476;SDS011;30180;44.788;10.366;2023-04-03T02:58:54;3.97;;;1.77;;
44476;SDS011;30180;44.788;10.366;2023-04-03T03:01:22;5.15;;;1.20;;
44476;SDS011;30180;44.788;10.366;2023-04-03T03:03:51;4.65;;;1.70;;
44476;SDS011;30180;44.788;10.366;2023-04-03T03:06:19;4.47;;;1.40;;
44476;SDS011;30180;44.788;10.366;2023-04-03T03:08:47;5.30;;;1.60;;
44476;SDS011;30180;44.788;10.366;2023-04-03T03:11:16;4.32;;;1.70;;
44476;SDS011;30180;44.788;10.366;2023-04-03T03:13:44;4.57;;;1.40;;
44476;SDS011;30180;44.788;10.366;2023-04-03T03:16:14;5.80;;;1.65;;
44476;SDS011;30180;44.788;10.366;2023-04-03T03:18:42;2.92;;;1.25;;
44476;SDS011;30180;44.788;10.366;2023-04-03T03:21:11;4.03;;;1.40;;
44476;SDS011;30180;44.788;10.366;2023-04-03T03:23:40;3.22;;;1.50;;
44476;SDS011;30180;44.788;10.366;2023-04-03T03:26:09;3.85;;;1.35;;
44476;SDS011;30180;44.788;10.366;2023-04-03T03:28:38;4.20;;;1.70;;
44476;SDS011;30180;44.788;10.366;2023-04-03T03:31:07;5.93;;;1.60;;
44476;SDS011;30180;44.788;10.366;2023-04-03T03:33:38;5.05;;;1.50;;
44476;SDS011;30180;44.788;10.366;2023-04-03T03:36:06;3.42;;;1.60;;
44476;SDS011;30180;44.788;10.366;2023-04-03T03:38:35;4.00;;;1.40;;
44476;SDS011;30180;44.788;10.366;2023-04-03T03:41:04;4.57;;;1.73;;
44476;SDS011;30180;44.788;10.366;2023-04-03T03:43:32;4.53;;;1.40;;
44476;SDS011;30180;44.788;10.366;2023-04-03T03:46:00;4.60;;;1.90;;
44476;SDS011;30180;44.788;10.366;2023-04-03T03:48:29;4.63;;;1.70;;
44476;SDS011;30180;44.788;10.366;2023-04-03T03:50:58;4.45;;;1.52;;
44476;SDS011;30180;44.788;10.366;2023-04-03T03:53:27;5.80;;;1.45;;
44476;SDS011;30180;44.788;10.366;2023-04-03T03:55:55;2.55;;;1.10;;
44476;SDS011;30180;44.788;10.366;2023-04-03T03:58:24;6.15;;;1.35;;
44476;SDS011;30180;44.788;10.366;2023-04-03T04:00:52;3.83;;;1.48;;
44476;SDS011;30180;44.788;10.366;2023-04-03T04:03:20;5.60;;;1.50;;
44476;SDS011;30180;44.788;10.366;2023-04-03T04:05:48;3.47;;;1.40;;
44476;SDS011;30180;44.788;10.366;2023-04-03T04:08:18;5.60;;;1.52;;
44476;SDS011;30180;44.788;10.366;2023-04-03T04:10:46;5.47;;;1.63;;
44476;SDS011;30180;44.788;10.366;2023-04-03T04:13:15;3.03;;;1.58;;
44476;SDS011;30180;44.788;10.366;2023-04-03T04:15:43;3.15;;;1.38;;
44476;SDS011;30180;44.788;10.366;2023-04-03T04:18:11;2.75;;;1.30;;
44476;SDS011;30180;44.788;10.366;2023-04-03T04:20:40;6.72;;;1.63;;
44476;SDS011;30180;44.788;10.366;2023-04-03T04:23:08;4.88;;;1.60;;
44476;SDS011;30180;44.788;10.366;2023-04-03T04:25:38;4.68;;;1.70;;
44476;SDS011;30180;44.788;10.366;2023-04-03T04:28:06;3.53;;;1.45;;
44476;SDS011;30180;44.788;10.366;2023-04-03T04:30:35;4.28;;;1.60;;
44476;SDS011;30180;44.788;10.366;2023-04-03T04:33:03;6.43;;;1.55;;
44476;SDS011;30180;44.788;10.366;2023-04-03T04:35:32;3.30;;;1.20;;
44476;SDS011;30180;44.788;10.366;2023-04-03T04:38:01;10.25;;;1.50;;
44476;SDS011;30180;44.788;10.366;2023-04-03T04:40:30;4.53;;;1.10;;
44476;SDS011;30180;44.788;10.366;2023-04-03T04:42:59;6.20;;;1.50;;
44476;SDS011;30180;44.788;10.366;2023-04-03T04:45:27;3.03;;;1.08;;
44476;SDS011;30180;44.788;10.366;2023-04-03T04:47:56;5.22;;;1.20;;
44476;SDS011;30180;44.788;10.366;2023-04-03T04:50:24;6.57;;;1.30;;
44476;SDS011;30180;44.788;10.366;2023-04-03T04:52:53;5.68;;;1.48;;
44476;SDS011;30180;44.788;10.366;2023-04-03T04:55:21;4.80;;;1.40;;
44476;SDS011;30180;44.788;10.366;2023-04-03T04:57:49;4.35;;;1.40;;
44476;SDS011;30180;44.788;10.366;2023-04-03T05:00:19;4.15;;;1.27;;
44476;SDS011;30180;44.788;10.366;2023-04-03T05:02:48;3.50;;;1.40;;
44476;SDS011;30180;44.788;10.366;2023-04-03T05:05:16;4.28;;;1.20;;
44476;SDS011;30180;44.788;10.366;2023-04-03T05:07:44;3.20;;;1.25;;
44476;SDS011;30180;44.788;10.366;2023-04-03T05:10:13;8.70;;;1.50;;
44476;SDS011;30180;44.788;10.366;2023-04-03T05:12:41;4.88;;;1.65;;
44476;SDS011;30180;44.788;10.366;2023-04-03T05:15:10;7.88;;;1.35;;
44476;SDS011;30180;44.788;10.366;2023-04-03T05:17:39;23.88;;;2.17;;
44476;SDS011;30180;44.788;10.366;2023-04-03T05:20:08;10.30;;;2.13;;
44476;SDS011;30180;44.788;10.366;2023-04-03T05:22:37;11.77;;;1.88;;
44476;SDS011;30180;44.788;10.366;2023-04-03T05:25:05;7.82;;;1.50;;
44476;SDS011;30180;44.788;10.366;2023-04-03T05:27:34;15.10;;;1.60;;
44476;SDS011;30180;44.788;10.366;2023-04-03T05:30:03;14.85;;;1.70;;
44476;SDS011;30180;44.788;10.366;2023-04-03T05:32:32;8.88;;;1.95;;
44476;SDS011;30180;44.788;10.366;2023-04-03T05:35:02;8.95;;;1.70;;
44476;SDS011;30180;44.788;10.366;2023-04-03T05:37:31;8.55;;;1.77;;
44476;SDS011;30180;44.788;10.366;2023-04-03T05:39:59;11.30;;;1.45;;
44476;SDS011;30180;44.788;10.366;2023-04-03T05:42:28;9.88;;;1.83;;
44476;SDS011;30180;44.788;10.366;2023-04-03T05:44:56;10.15;;;1.98;;
44476;SDS011;30180;44.788;10.366;2023-04-03T05:47:24;11.05;;;1.67;;
44476;SDS011;30180;44.788;10.366;2023-04-03T05:49:53;7.50;;;1.50;;
44476;SDS011;30180;44.788;10.366;2023-04-03T05:52:23;13.40;;;4.20;;
44476;SDS011;30180;44.788;10.366;2023-04-03T05:54:54;7.60;;;1.65;;
44476;SDS011;30180;44.788;10.366;2023-04-03T05:57:23;6.03;;;1.40;;
44476;SDS011;30180;44.788;10.366;2023-04-03T05:59:52;7.20;;;1.45;;
44476;SDS011;30180;44.788;10.366;2023-04-03T06:02:21;12.02;;;1.55;;
44476;SDS011;30180;44.788;10.366;2023-04-03T06:04:50;7.88;;;1.83;;
44476;SDS011;30180;44.788;10.366;2023-04-03T06:07:20;6.18;;;2.03;;
44476;SDS011;30180;44.788;10.366;2023-04-03T06:09:51;7.32;;;1.58;;
44476;SDS011;30180;44.788;10.366;2023-04-03T06:12:19;7.95;;;1.50;;
44476;SDS011;30180;44.788;10.366;2023-04-03T06:14:48;4.63;;;1.55;;
44476;SDS011;30180;44.788;10.366;2023-04-03T06:17:16;6.13;;;1.40;;
44476;SDS011;30180;44.788;10.366;2023-04-03T06:19:45;11.50;;;1.50;;
44476;SDS011;30180;44.788;10.366;2023-04-03T06:22:13;6.93;;;1.20;;
44476;SDS011;30180;44.788;10.366;2023-04-03T06:24:42;5.95;;;1.52;;
44476;SDS011;30180;44.788;10.366;2023-04-03T06:27:11;5.93;;;1.33;;
44476;SDS011;30180;44.788;10.366;2023-04-03T06:29:40;8.98;;;1.73;;
44476;SDS011;30180;44.788;10.366;2023-04-03T06:32:08;6.25;;;1.80;;
44476;SDS011;30180;44.788;10.366;2023-04-03T06:34:36;4.97;;;1.38;;
44476;SDS011;30180;44.788;10.366;2023-04-03T06:37:05;7.15;;;1.58;;
44476;SDS011;30180;44.788;10.366;2023-04-03T06:39:33;5.75;;;1.65;;
44476;SDS011;30180;44.788;10.366;2023-04-03T06:42:02;6.78;;;1.50;;
44476;SDS011;30180;44.788;10.366;2023-04-03T06:44:31;6.00;;;1.38;;
44476;SDS011;30180;44.788;10.366;2023-04-03T06:47:00;3.47;;;1.20;;
44476;SDS011;30180;44.788;10.366;2023-04-03T06:49:29;5.40;;;1.38;;
44476;SDS011;30180;44.788;10.366;2023-04-03T06:51:57;5.57;;;1.17;;
44476;SDS011;30180;44.788;10.366;2023-04-03T06:54:28;4.67;;;1.40;;
44476;SDS011;30180;44.788;10.366;2023-04-03T06:56:56;6.65;;;1.50;;
44476;SDS011;30180;44.788;10.366;2023-04-03T06:59:24;8.45;;;2.28;;
44476;SDS011;30180;44.788;10.366;2023-04-03T07:01:54;7.47;;;1.48;;
44476;SDS011;30180;44.788;10.366;2023-04-03T07:04:23;4.40;;;1.20;;
44476;SDS011;30180;44.788;10.366;2023-04-03T07:06:51;4.20;;;1.40;;
44476;SDS011;30180;44.788;10.366;2023-04-03T07:09:20;3.50;;;1.10;;
44476;SDS011;30180;44.788;10.366;2023-04-03T07:11:48;2.97;;;1.38;;
44476;SDS011;30180;44.788;10.366;2023-04-03T07:14:16;4.15;;;1.58;;
44476;SDS011;30180;44.788;10.366;2023-04-03T07:16:45;6.45;;;1.88;;
44476;SDS011;30180;44.788;10.366;2023-04-03T07:19:15;7.55;;;1.65;;
44476;SDS011;30180;44.788;10.366;2023-04-03T07:21:44;4.45;;;1.55;;
44476;SDS011;30180;44.788;10.366;2023-04-03T07:24:12;4.43;;;1.30;;
44476;SDS011;30180;44.788;10.366;2023-04-03T07:26:42;4.63;;;1.42;;
44476;SDS011;30180;44.788;10.366;2023-04-03T07:29:11;4.78;;;1.50;;
44476;SDS011;30180;44.788;10.366;2023-04-03T07:31:40;6.82;;;1.10;;
44476;SDS011;30180;44.788;10.366;2023-04-03T07:34:09;4.35;;;1.10;;
44476;SDS011;30180;44.788;10.366;2023-04-03T07:36:39;4.35;;;1.10;;
44476;SDS011;30180;44.788;10.366;2023-04-03T07:39:08;5.70;;;1.02;;
44476;SDS011;30180;44.788;10.366;2023-04-03T07:41:37;2.50;;;1.00;;
44476;SDS011;30180;44.788;10.366;2023-04-03T07:44:05;3.47;;;1.20;;
44476;SDS011;30180;44.788;10.366;2023-04-03T07:46:36;4.63;;;1.27;;
44476;SDS011;30180;44.788;10.366;2023-04-03T07:49:05;3.67;;;1.23;;
44476;SDS011;30180;44.788;10.366;2023-04-03T07:51:34;3.15;;;1.10;;
44476;SDS011;30180;44.788;10.366;2023-04-03T07:54:04;4.20;;;1.67;;
44476;SDS011;30180;44.788;10.366;2023-04-03T07:56:32;3.63;;;1.20;;
44476;SDS011;30180;44.788;10.366;2023-04-03T07:59:00;3.65;;;1.10;;
44476;SDS011;30180;44.788;10.366;2023-04-03T08:01:29;4.55;;;1.20;;
44476;SDS011;30180;44.788;10.366;2023-04-03T08:03:58;4.10;;;1.40;;
44476;SDS011;30180;44.788;10.366;2023-04-03T08:06:27;3.60;;;1.30;;
44476;SDS011;30180;44.788;10.366;2023-04-03T08:09:13;3.50;;;1.27;;
44476;SDS011;30180;44.788;10.366;2023-04-03T08:11:42;3.22;;;1.10;;
44476;SDS011;30180;44.788;10.366;2023-04-03T08:14:11;5.05;;;1.20;;
44476;SDS011;30180;44.788;10.366;2023-04-03T08:16:43;5.03;;;1.13;;
44476;SDS011;30180;44.788;10.366;2023-04-03T08:19:12;3.90;;;1.10;;
44476;SDS011;30180;44.788;10.366;2023-04-03T08:21:52;5.05;;;1.40;;
44476;SDS011;30180;44.788;10.366;2023-04-03T08:24:22;4.15;;;1.38;;
44476;SDS011;30180;44.788;10.366;2023-04-03T08:26:50;2.95;;;1.08;;
44476;SDS011;30180;44.788;10.366;2023-04-03T08:29:18;2.92;;;0.98;;
44476;SDS011;30180;44.788;10.366;2023-04-03T08:31:47;4.80;;;1.10;;
44476;SDS011;30180;44.788;10.366;2023-04-03T08:34:17;3.22;;;1.15;;
44476;SDS011;30180;44.788;10.366;2023-04-03T08:36:45;2.80;;;1.10;;
44476;SDS011;30180;44.788;10.366;2023-04-03T08:39:14;4.03;;;1.58;;
44476;SDS011;30180;44.788;10.366;2023-04-03T08:41:44;6.00;;;1.40;;
44476;SDS011;30180;44.788;10.366;2023-04-03T08:44:15;4.28;;;1.15;;
44476;SDS011;30180;44.788;10.366;2023-04-03T08:46:54;2.25;;;0.90;;
44476;SDS011;30180;44.788;10.366;2023-04-03T08:49:30;4.82;;;1.33;;
44476;SDS011;30180;44.788;10.366;2023-04-03T08:52:01;4.30;;;1.40;;
44476;SDS011;30180;44.788;10.366;2023-04-03T08:54:32;3.35;;;1.10;;
44476;SDS011;30180;44.788;10.366;2023-04-03T08:57:04;2.92;;;1.30;;
44476;SDS011;30180;44.788;10.366;2023-04-03T08:59:34;6.22;;;1.10;;
44476;SDS011;30180;44.788;10.366;2023-04-03T09:02:21;3.53;;;1.10;;
44476;SDS011;30180;44.788;10.366;2023-04-03T09:04:54;2.13;;;0.95;;
44476;SDS011;30180;44.788;10.366;2023-04-03T09:07:25;3.85;;;1.17;;
44476;SDS011;30180;44.788;10.366;2023-04-03T09:10:01;2.20;;;1.10;;
44476;SDS011;30180;44.788;10.366;2023-04-03T09:12:33;3.70;;;1.10;;
44476;SDS011;30180;44.788;10.366;2023-04-03T09:15:09;3.13;;;1.10;;
44476;SDS011;30180;44.788;10.366;2023-04-03T09:17:51;1.88;;;0.88;;
44476;SDS011;30180;44.788;10.366;2023-04-03T09:20:29;2.22;;;0.90;;
44476;SDS011;30180;44.788;10.366;2023-04-03T09:23:10;2.63;;;1.13;;
44476;SDS011;30180;44.788;10.366;2023-04-03T09:25:45;3.90;;;1.17;;
44476;SDS011;30180;44.788;10.366;2023-04-03T09:28:15;2.30;;;1.00;;
44476;SDS011;30180;44.788;10.366;2023-04-03T09:30:44;2.83;;;0.95;;
44476;SDS011;30180;44.788;10.366;2023-04-03T09:33:12;2.15;;;0.98;;
44476;SDS011;30180;44.788;10.366;2023-04-03T09:35:43;2.97;;;1.20;;
44476;SDS011;30180;44.788;10.366;2023-04-03T09:40:44;2.95;;;1.00;;
44476;SDS011;30180;44.788;10.366;2023-04-03T09:43:23;2.88;;;0.73;;
44476;SDS011;30180;44.788;10.366;2023-04-03T09:45:54;2.67;;;1.00;;
44476;SDS011;30180;44.788;10.366;2023-04-03T09:48:23;4.32;;;1.10;;
44476;SDS011;30180;44.788;10.366;2023-04-03T09:50:58;2.60;;;1.17;;
44476;SDS011;30180;44.788;10.366;2023-04-03T09:53:33;2.25;;;1.00;;
44476;SDS011;30180;44.788;10.366;2023-04-03T09:56:04;4.47;;;1.15;;
44476;SDS011;30180;44.788;10.366;2023-04-03T09:58:50;4.95;;;1.05;;
44476;SDS011;30180;44.788;10.366;2023-04-03T10:01:31;3.58;;;1.10;;
44476;SDS011;30180;44.788;10.366;2023-04-03T10:04:08;2.90;;;1.15;;
44476;SDS011;30180;44.788;10.366;2023-04-03T10:06:38;4.10;;;1.38;;
44476;SDS011;30180;44.788;10.366;2023-04-03T10:09:19;3.25;;;1.25;;
44476;SDS011;30180;44.788;10.366;2023-04-03T10:12:02;2.35;;;1.27;;
44476;SDS011;30180;44.788;10.366;2023-04-03T10:14:34;2.00;;;0.90;;
44476;SDS011;30180;44.788;10.366;2023-04-03T10:17:12;2.25;;;0.98;;
44476;SDS011;30180;44.788;10.366;2023-04-03T10:19:46;4.35;;;1.05;;
44476;SDS011;30180;44.788;10.366;2023-04-03T10:22:19;3.42;;;1.08;;
44476;SDS011;30180;44.788;10.366;2023-04-03T10:24:55;3.92;;;1.10;;
44476;SDS011;30180;44.788;10.366;2023-04-03T10:27:33;1.88;;;0.80;;
44476;SDS011;30180;44.788;10.366;2023-04-03T10:30:14;2.67;;;0.85;;
44476;SDS011;30180;44.788;10.366;2023-04-03T10:32:52;3.05;;;0.75;;
44476;SDS011;30180;44.788;10.366;2023-04-03T10:35:33;1.65;;;0.80;;
44476;SDS011;30180;44.788;10.366;2023-04-03T10:38:11;1.67;;;0.65;;
44476;SDS011;30180;44.788;10.366;2023-04-03T10:40:49;1.90;;;0.85;;
44476;SDS011;30180;44.788;10.366;2023-04-03T10:43:24;3.17;;;0.90;;
44476;SDS011;30180;44.788;10.366;2023-04-03T10:46:02;2.58;;;0.90;;
44476;SDS011;30180;44.788;10.366;2023-04-03T10:48:35;2.15;;;0.90;;
44476;SDS011;30180;44.788;10.366;2023-04-03T10:51:28;2.53;;;0.95;;
44476;SDS011;30180;44.788;10.366;2023-04-03T10:54:01;3.53;;;1.23;;
44476;SDS011;30180;44.788;10.366;2023-04-03T10:56:35;3.17;;;0.77;;
44476;SDS011;30180;44.788;10.366;2023-04-03T10:59:17;3.22;;;1.50;;
44476;SDS011;30180;44.788;10.366;2023-04-03T11:01:53;4.05;;;1.17;;
44476;SDS011;30180;44.788;10.366;2023-04-03T11:04:23;4.22;;;1.10;;
44476;SDS011;30180;44.788;10.366;2023-04-03T11:06:57;4.00;;;1.00;;
44476;SDS011;30180;44.788;10.366;2023-04-03T11:09:30;3.08;;;0.98;;
44476;SDS011;30180;44.788;10.366;2023-04-03T11:12:04;2.47;;;0.95;;
44476;SDS011;30180;44.788;10.366;2023-04-03T11:14:44;4.43;;;0.95;;
44476;SDS011;30180;44.788;10.366;2023-04-03T11:17:19;1.75;;;0.82;;
44476;SDS011;30180;44.788;10.366;2023-04-03T11:19:59;4.85;;;1.38;;
44476;SDS011;30180;44.788;10.366;2023-04-03T11:22:33;3.33;;;1.20;;
44476;SDS011;30180;44.788;10.366;2023-04-03T11:25:04;4.40;;;1.08;;
44476;SDS011;30180;44.788;10.366;2023-04-03T11:27:47;3.28;;;1.35;;
44476;SDS011;30180;44.788;10.366;2023-04-03T11:30:19;2.67;;;1.08;;
44476;SDS011;30180;44.788;10.366;2023-04-03T11:33:02;2.63;;;0.82;;
44476;SDS011;30180;44.788;10.366;2023-04-03T11:35:42;3.25;;;0.90;;
44476;SDS011;30180;44.788;10.366;2023-04-03T11:38:14;1.63;;;0.90;;
44476;SDS011;30180;44.788;10.366;2023-04-03T11:40:46;1.60;;;0.85;;
44476;SDS011;30180;44.788;10.366;2023-04-03T11:43:20;2.28;;;0.95;;
44476;SDS011;30180;44.788;10.366;2023-04-03T11:45:55;3.30;;;1.00;;
44476;SDS011;30180;44.788;10.366;2023-04-03T11:48:48;3.28;;;1.00;;
44476;SDS011;30180;44.788;10.366;2023-04-03T11:51:38;2.90;;;0.88;;
44476;SDS011;30180;44.788;10.366;2023-04-03T12:06:50;2.10;;;0.90;;
44476;SDS011;30180;44.788;10.366;2023-04-03T12:09:31;3.60;;;0.93;;
44476;SDS011;30180;44.788;10.366;2023-04-03T12:12:22;3.25;;;0.88;;
44476;SDS011;30180;44.788;10.366;2023-04-03T12:15:09;4.07;;;0.90;;
44476;SDS011;30180;44.788;10.366;2023-04-03T12:17:54;3.42;;;1.10;;
44476;SDS011;30180;44.788;10.366;2023-04-03T12:23:27;2.45;;;0.80;;
44476;SDS011;30180;44.788;10.366;2023-04-03T12:26:05;2.05;;;0.90;;
44476;SDS011;30180;44.788;10.366;2023-04-03T12:28:48;3.90;;;0.73;;
44476;SDS011;30180;44.788;10.366;2023-04-03T12:31:19;3.15;;;0.80;;
44476;SDS011;30180;44.788;10.366;2023-04-03T12:33:57;3.35;;;1.08;;
44476;SDS011;30180;44.788;10.366;2023-04-03T12:36:39;1.73;;;0.90;;
44476;SDS011;30180;44.788;10.366;2023-04-03T12:39:22;2.33;;;0.98;;
44476;SDS011;30180;44.788;10.366;2023-04-03T12:42:03;1.73;;;0.70;;
44476;SDS011;30180;44.788;10.366;2023-04-03T12:44:45;2.67;;;0.80;;
44476;SDS011;30180;44.788;10.366;2023-04-03T12:47:24;5.20;;;1.10;;
44476;SDS011;30180;44.788;10.366;2023-04-03T12:49:59;2.47;;;1.05;;
44476;SDS011;30180;44.788;10.366;2023-04-03T12:52:32;2.42;;;1.02;;
44476;SDS011;30180;44.788;10.366;2023-04-03T12:55:12;3.15;;;0.93;;
44476;SDS011;30180;44.788;10.366;2023-04-03T12:57:42;2.97;;;0.80;;
44476;SDS011;30180;44.788;10.366;2023-04-03T13:00:19;2.63;;;1.10;;
44476;SDS011;30180;44.788;10.366;2023-04-03T13:02:59;2.97;;;1.00;;
44476;SDS011;30180;44.788;10.366;2023-04-03T13:05:31;1.38;;;0.70;;
44476;SDS011;30180;44.788;10.366;2023-04-03T13:08:03;4.57;;;0.90;;
44476;SDS011;30180;44.788;10.366;2023-04-03T13:10:35;1.58;;;0.77;;
44476;SDS011;30180;44.788;10.366;2023-04-03T13:15:43;0.95;;;0.60;;
44476;SDS011;30180;44.788;10.366;2023-04-03T13:18:22;4.53;;;1.13;;
44476;SDS011;30180;44.788;10.366;2023-04-03T13:20:52;3.20;;;1.13;;
44476;SDS011;30180;44.788;10.366;2023-04-03T13:23:23;2.25;;;0.82;;
44476;SDS011;30180;44.788;10.366;2023-04-03T13:25:53;3.45;;;0.77;;
44476;SDS011;30180;44.788;10.366;2023-04-03T13:28:24;1.73;;;0.60;;
44476;SDS011;30180;44.788;10.366;2023-04-03T13:31:00;1.98;;;0.70;;
44476;SDS011;30180;44.788;10.366;2023-04-03T13:33:32;2.22;;;0.80;;
44476;SDS011;30180;44.788;10.366;2023-04-03T13:36:05;4.78;;;0.90;;
44476;SDS011;30180;44.788;10.366;2023-04-03T13:38:39;3.90;;;0.82;;
44476;SDS011;30180;44.788;10.366;2023-04-03T13:41:23;3.25;;;0.90;;
44476;SDS011;30180;44.788;10.366;2023-04-03T13:43:52;8.13;;;1.13;;
44476;SDS011;30180;44.788;10.366;2023-04-03T13:46:35;5.32;;;1.35;;
44476;SDS011;30180;44.788;10.366;2023-04-03T13:49:16;3.42;;;0.90;;
44476;SDS011;30180;44.788;10.366;2023-04-03T13:51:47;3.55;;;0.90;;
44476;SDS011;30180;44.788;10.366;2023-04-03T13:54:33;4.68;;;1.20;;
44476;SDS011;30180;44.788;10.366;2023-04-03T13:57:10;2.30;;;1.00;;
44476;SDS011;30180;44.788;10.366;2023-04-03T13:59:41;7.38;;;0.88;;
44476;SDS011;30180;44.788;10.366;2023-04-03T14:02:13;4.90;;;1.02;;
44476;SDS011;30180;44.788;10.366;2023-04-03T14:04:46;3.33;;;0.73;;
44476;SDS011;30180;44.788;10.366;2023-04-03T14:07:19;2.88;;;1.10;;
44476;SDS011;30180;44.788;10.366;2023-04-03T14:09:48;7.03;;;1.10;;
44476;SDS011;30180;44.788;10.366;2023-04-03T14:12:18;5.03;;;0.90;;
44476;SDS011;30180;44.788;10.366;2023-04-03T14:14:56;3.00;;;1.10;;
44476;SDS011;30180;44.788;10.366;2023-04-03T14:17:28;4.50;;;1.10;;
44476;SDS011;30180;44.788;10.366;2023-04-03T14:19:58;6.57;;;1.33;;
44476;SDS011;30180;44.788;10.366;2023-04-03T14:22:28;3.88;;;1.17;;
44476;SDS011;30180;44.788;10.366;2023-04-03T14:24:59;6.35;;;1.10;;
44476;SDS011;30180;44.788;10.366;2023-04-03T14:27:33;5.53;;;1.83;;
44476;SDS011;30180;44.788;10.366;2023-04-03T14:30:05;2.95;;;0.82;;
44476;SDS011;30180;44.788;10.366;2023-04-03T14:32:35;6.15;;;1.10;;
44476;SDS011;30180;44.788;10.366;2023-04-03T14:35:04;3.97;;;1.02;;
44476;SDS011;30180;44.788;10.366;2023-04-03T14:37:32;2.95;;;1.10;;
44476;SDS011;30180;44.788;10.366;2023-04-03T14:40:02;4.07;;;1.10;;
44476;SDS011;30180;44.788;10.366;2023-04-03T14:42:34;6.25;;;1.05;;
44476;SDS011;30180;44.788;10.366;2023-04-03T14:45:05;3.30;;;1.00;;
44476;SDS011;30180;44.788;10.366;2023-04-03T14:47:38;2.95;;;0.88;;
44476;SDS011;30180;44.788;10.366;2023-04-03T14:50:11;3.40;;;1.00;;
44476;SDS011;30180;44.788;10.366;2023-04-03T14:52:43;4.65;;;1.10;;
44476;SDS011;30180;44.788;10.366;2023-04-03T14:55:13;4.60;;;0.90;;
44476;SDS011;30180;44.788;10.366;2023-04-03T14:57:44;6.40;;;1.73;;
44476;SDS011;30180;44.788;10.366;2023-04-03T15:00:13;6.25;;;1.85;;
44476;SDS011;30180;44.788;10.366;2023-04-03T15:02:44;3.42;;;1.20;;
44476;SDS011;30180;44.788;10.366;2023-04-03T15:05:14;3.15;;;1.00;;
44476;SDS011;30180;44.788;10.366;2023-04-03T15:07:44;3.28;;;0.73;;
44476;SDS011;30180;44.788;10.366;2023-04-03T15:10:17;3.92;;;1.10;;
44476;SDS011;30180;44.788;10.366;2023-04-03T15:12:49;4.75;;;1.20;;
44476;SDS011;30180;44.788;10.366;2023-04-03T15:15:18;4.05;;;1.08;;
44476;SDS011;30180;44.788;10.366;2023-04-03T15:17:50;2.83;;;1.05;;
44476;SDS011;30180;44.788;10.366;2023-04-03T15:20:21;3.95;;;1.45;;